createdAt,value
2023-04-03T00:01:28.364Z,0.70
2023-04-03T00:04:16.822Z,0.60
2023-04-03T00:07:06.385Z,0.60
2023-04-03T00:09:54.584Z,0.50
2023-04-03T00:12:42.818Z,0.50
2023-04-03T00:15:31.322Z,0.50
2023-04-03T00:18:19.594Z,0.00
2023-04-03T00:21:09.043Z,0.50
2023-04-03T00:23:58.586Z,0.40
2023-04-03T00:26:46.813Z,0.40
2023-04-03T00:29:35.833Z,0.40
2023-04-03T00:32:24.134Z,0.50
2023-04-03T00:35:12.619Z,0.40
2023-04-03T00:38:01.215Z,0.40
2023-04-03T00:40:52.024Z,0.40
2023-04-03T00:43:40.738Z,0.40
2023-04-03T00:46:30.338Z,0.30
2023-04-03T00:49:18.906Z,0.30
2023-04-03T00:52:11.061Z,0.20
2023-04-03T00:55:05.948Z,0.20
2023-04-03T00:57:58.809Z,0.10
2023-04-03T01:00:58.333Z,0.20
2023-04-03T01:03:46.753Z,0.20
2023-04-03T01:06:39.773Z,0.20
2023-04-03T01:09:31.728Z,0.10
2023-04-03T01:12:23.573Z,0.10
2023-04-03T01:15:18.041Z,0.10
2023-04-03T01:18:06.422Z,0.10
2023-04-03T01:21:36.854Z,0.00
2023-04-03T01:24:36.237Z,0.10
2023-04-03T01:27:27.123Z,0.10
2023-04-03T01:30:21.523Z,0.10
2023-04-03T01:33:11.400Z,0.00
2023-04-03T01:36:00.044Z,0.00
2023-04-03T01:38:49.247Z,-0.10
2023-04-03T01:41:37.499Z,-0.10
2023-04-03T01:44:34.103Z,-0.10
2023-04-03T01:47:23.425Z,-0.10
2023-04-03T01:50:13.701Z,-0.10
2023-04-03T01:53:01.950Z,-0.20
2023-04-03T01:55:50.750Z,-0.20
2023-04-03T01:58:39.316Z,-0.20
2023-04-03T02:01:27.771Z,-0.10
2023-04-03T02:04:16.473Z,-0.20
2023-04-03T02:07:06.046Z,-0.20
2023-04-03T02:09:55.077Z,-0.20
2023-04-03T02:12:43.465Z,-0.20
2023-04-03T02:15:31.914Z,-0.20
2023-04-03T02:18:20.203Z,-0.20
2023-04-03T02:21:08.549Z,-0.20
2023-04-03T02:23:58.293Z,-0.20
2023-04-03T02:26:46.871Z,-0.30
2023-04-03T02:29:35.100Z,-0.30
2023-04-03T02:32:23.403Z,-0.30
2023-04-03T02:35:13.569Z,-0.30
2023-04-03T02:38:02.328Z,-0.30
2023-04-03T02:40:52.794Z,-0.30
2023-04-03T02:43:41.280Z,-0.30
2023-04-03T02:46:29.662Z,-0.30
2023-04-03T02:49:18.894Z,-0.40
2023-04-03T02:52:07.189Z,-0.40
2023-04-03T02:54:55.499Z,-0.40
2023-04-03T02:57:45.228Z,-0.40
2023-04-03T03:00:35.960Z,-0.40
2023-04-03T03:03:24.351Z,-0.40
2023-04-03T03:06:15.666Z,-0.50
2023-04-03T03:09:04.547Z,-0.50
2023-04-03T03:11:52.731Z,-0.50
2023-04-03T03:14:43.802Z,-0.50
2023-04-03T03:17:32.072Z,-0.60
2023-04-03T03:20:20.327Z,-0.70
2023-04-03T03:23:08.821Z,-0.70
2023-04-03T03:25:58.455Z,-0.70
2023-04-03T03:28:47.370Z,-0.70
2023-04-03T03:31:36.932Z,-0.70
2023-04-03T03:34:25.312Z,-0.60
2023-04-03T03:37:13.917Z,-0.70
2023-04-03T03:40:02.340Z,-0.70
2023-04-03T03:42:51.593Z,-0.70
2023-04-03T03:45:39.904Z,-0.70
2023-04-03T03:48:29.598Z,-0.70
2023-04-03T03:51:18.326Z,-0.70
2023-04-03T03:54:07.612Z,-0.70
2023-04-03T03:56:56.507Z,-0.80
2023-04-03T03:59:46.591Z,-0.90
2023-04-03T04:02:35.294Z,-0.90
2023-04-03T04:05:25.641Z,-0.90
2023-04-03T04:08:15.242Z,-0.90
2023-04-03T04:11:05.371Z,-1.00
2023-04-03T04:13:54.330Z,-0.90
2023-04-03T04:16:46.746Z,-1.00
2023-04-03T04:19:40.706Z,-1.00
2023-04-03T04:22:30.348Z,-1.00
2023-04-03T04:25:18.689Z,-0.90
2023-04-03T04:28:07.761Z,-1.00
2023-04-03T04:30:56.852Z,-1.00
2023-04-03T04:33:47.996Z,-1.00
2023-04-03T04:36:37.257Z,-1.00
2023-04-03T04:39:27.636Z,-1.00
2023-04-03T04:42:18.650Z,-1.00
2023-04-03T04:45:09.817Z,-1.10
2023-04-03T04:47:59.658Z,-1.00
2023-04-03T04:50:48.320Z,-1.10
2023-04-03T04:53:36.920Z,-1.10
2023-04-03T04:56:27.181Z,-1.10
2023-04-03T04:59:19.340Z,-1.00
2023-04-03T05:02:09.431Z,-0.90
2023-04-03T05:05:00.843Z,-0.70
2023-04-03T05:07:52.069Z,-0.50
2023-04-03T05:10:41.717Z,-0.30
2023-04-03T05:13:31.512Z,0.00
2023-04-03T05:16:20.017Z,0.30
2023-04-03T05:18:48.550Z,0.60
2023-04-03T05:21:22.782Z,0.90
2023-04-03T05:23:51.139Z,1.20
2023-04-03T05:26:19.561Z,1.50
2023-04-03T05:28:51.152Z,2.90
2023-04-03T05:31:20.362Z,2.10
2023-04-03T05:33:49.068Z,2.60
2023-04-03T05:36:20.223Z,3.00
2023-04-03T05:38:52.128Z,3.60
2023-04-03T05:41:21.594Z,4.10
2023-04-03T05:43:51.003Z,4.60
2023-04-03T05:46:23.145Z,5.40
2023-04-03T05:48:55.086Z,6.50
2023-04-03T05:51:32.231Z,6.70
2023-04-03T05:54:14.537Z,6.60
2023-04-03T05:56:43.480Z,6.80
2023-04-03T05:59:12.829Z,7.30
2023-04-03T06:01:41.517Z,7.70
2023-04-03T06:04:09.987Z,6.90
2023-04-03T06:06:49.043Z,5.60
2023-04-03T06:09:18.057Z,4.60
2023-04-03T06:11:46.886Z,4.10
2023-04-03T06:14:16.131Z,4.00
2023-04-03T06:16:44.617Z,3.80
2023-04-03T06:19:14.118Z,4.20
2023-04-03T06:21:48.054Z,4.60
2023-04-03T06:24:18.918Z,4.70
2023-04-03T06:26:47.151Z,4.40
2023-04-03T06:29:16.435Z,4.70
2023-04-03T06:31:44.283Z,5.10
2023-04-03T06:34:13.440Z,5.50
2023-04-03T06:36:42.002Z,5.20
2023-04-03T06:39:13.802Z,5.20
2023-04-03T06:41:41.970Z,5.00
2023-04-03T06:44:11.923Z,5.60
2023-04-03T06:46:41.528Z,5.80
2023-04-03T06:49:09.613Z,6.30
2023-04-03T06:51:38.309Z,6.30
2023-04-03T06:54:09.147Z,6.00
2023-04-03T06:56:37.830Z,6.70
2023-04-03T06:59:05.905Z,7.50
2023-04-03T07:01:33.957Z,8.70
2023-04-03T07:04:03.564Z,8.60
2023-04-03T07:06:32.702Z,9.20
2023-04-03T07:09:00.679Z,9.40
2023-04-03T07:11:29.172Z,9.60
2023-04-03T07:13:57.548Z,9.70
2023-04-03T07:16:25.662Z,9.20
2023-04-03T07:18:53.699Z,8.60
2023-04-03T07:21:22.910Z,7.00
2023-04-03T07:23:54.066Z,6.90
2023-04-03T07:26:23.109Z,7.10
2023-04-03T07:28:51.429Z,6.50
2023-04-03T07:31:19.651Z,6.20
2023-04-03T07:33:47.796Z,6.00
2023-04-03T07:36:21.414Z,5.80
2023-04-03T07:38:51.292Z,5.80
2023-04-03T07:41:23.503Z,5.80
2023-04-03T07:43:51.723Z,6.30
2023-04-03T07:46:19.897Z,6.70
2023-04-03T07:48:48.142Z,6.90
2023-04-03T07:51:16.372Z,7.10
2023-04-03T07:53:44.315Z,7.20
2023-04-03T07:56:13.918Z,6.80
2023-04-03T07:58:41.998Z,6.20
2023-04-03T08:01:10.344Z,5.60
2023-04-03T08:03:38.669Z,6.20
2023-04-03T08:06:15.647Z,6.40
2023-04-03T08:08:44.295Z,6.50
2023-04-03T08:11:16.593Z,6.90
2023-04-03T08:13:44.697Z,7.50
2023-04-03T08:16:18.140Z,7.90
2023-04-03T08:18:46.199Z,7.80
2023-04-03T08:21:14.871Z,7.30
2023-04-03T08:23:43.468Z,7.60
2023-04-03T08:26:15.199Z,7.80
2023-04-03T08:28:44.419Z,8.10
2023-04-03T08:31:16.277Z,7.60
2023-04-03T08:33:44.300Z,7.10
2023-04-03T08:36:21.945Z,6.50
2023-04-03T08:38:50.061Z,6.30
2023-04-03T08:41:31.756Z,5.80
2023-04-03T08:44:20.305Z,4.80
2023-04-03T08:47:03.953Z,4.60
2023-04-03T08:49:37.466Z,4.60
2023-04-03T08:52:13.560Z,4.60
2023-04-03T08:54:53.442Z,4.50
2023-04-03T08:57:32.049Z,4.60
2023-04-03T09:00:08.803Z,4.50
2023-04-03T09:02:48.177Z,4.70
2023-04-03T09:05:24.056Z,4.70
2023-04-03T09:08:07.737Z,4.60
2023-04-03T09:10:41.755Z,4.60
2023-04-03T09:13:23.231Z,4.60
2023-04-03T09:15:54.945Z,4.50
2023-04-03T09:18:30.669Z,4.50
2023-04-03T09:21:09.454Z,4.50
2023-04-03T09:23:46.081Z,4.70
2023-04-03T09:26:21.843Z,4.80
2023-04-03T09:28:50.730Z,4.60
2023-04-03T09:31:25.676Z,4.10
2023-04-03T09:34:01.744Z,4.20
2023-04-03T09:36:45.306Z,4.40
2023-04-03T09:39:17.193Z,4.40
2023-04-03T09:42:01.535Z,4.30
2023-04-03T09:44:33.005Z,4.00
2023-04-03T09:47:25.599Z,3.90
2023-04-03T09:50:18.197Z,3.80
2023-04-03T09:52:49.588Z,3.80
2023-04-03T09:55:20.442Z,3.90
2023-04-03T09:57:51.518Z,4.00
2023-04-03T10:00:26.815Z,3.90
2023-04-03T10:02:58.312Z,3.80
2023-04-03T10:05:35.043Z,3.90
2023-04-03T10:08:13.493Z,4.00
2023-04-03T10:10:47.928Z,4.00
2023-04-03T10:13:21.634Z,4.10
2023-04-03T10:15:58.034Z,4.10
2023-04-03T10:18:40.571Z,4.30
2023-04-03T10:21:26.509Z,4.30
2023-04-03T10:24:09.683Z,4.30
2023-04-03T10:26:49.653Z,4.30
2023-04-03T10:29:38.214Z,4.30
2023-04-03T10:32:31.072Z,4.30
2023-04-03T10:35:13.848Z,4.20
2023-04-03T10:38:02.768Z,4.10
2023-04-03T10:40:44.644Z,4.10
2023-04-03T10:43:23.856Z,4.10
2023-04-03T10:46:03.888Z,4.00
2023-04-03T10:48:48.354Z,4.00
2023-04-03T10:51:30.148Z,3.90
2023-04-03T10:54:10.619Z,4.00
2023-04-03T10:56:43.411Z,4.10
2023-04-03T10:59:27.214Z,4.30
2023-04-03T11:02:02.541Z,4.30
2023-04-03T11:04:38.703Z,4.30
2023-04-03T11:07:19.710Z,4.40
2023-04-03T11:09:54.131Z,4.40
2023-04-03T11:12:30.908Z,4.40
2023-04-03T11:14:59.973Z,4.40
2023-04-03T11:17:36.151Z,4.30
2023-04-03T11:20:17.485Z,4.30
2023-04-03T11:22:55.625Z,4.30
2023-04-03T11:25:26.942Z,4.60
2023-04-03T11:27:59.124Z,4.70
2023-04-03T11:30:34.449Z,4.70
2023-04-03T11:33:30.477Z,4.60
2023-04-03T11:36:12.453Z,4.40
2023-04-03T11:38:54.723Z,4.50
2023-04-03T11:41:30.741Z,4.60
2023-04-03T11:44:02.959Z,4.60
2023-04-03T11:46:57.933Z,4.60
2023-04-03T11:49:57.749Z,4.60
2023-04-03T11:53:01.688Z,4.60
2023-04-03T11:55:55.165Z,4.60
2023-04-03T11:58:27.244Z,4.70
2023-04-03T12:01:04.621Z,4.70
2023-04-03T12:04:10.160Z,4.40
2023-04-03T12:07:21.673Z,4.30
2023-04-03T12:10:31.157Z,4.20
2023-04-03T12:13:05.209Z,4.30
2023-04-03T12:15:58.547Z,4.60
2023-04-03T12:19:04.194Z,4.80
2023-04-03T12:22:10.247Z,5.00
2023-04-03T12:24:41.279Z,4.90
2023-04-03T12:27:27.844Z,4.70
2023-04-03T12:30:07.394Z,4.80
2023-04-03T12:33:09.698Z,4.90
2023-04-03T12:36:01.329Z,5.00
2023-04-03T12:39:03.273Z,5.00
2023-04-03T12:41:44.874Z,5.00
2023-04-03T12:44:37.976Z,5.00
2023-04-03T12:47:25.780Z,5.00
2023-04-03T12:49:56.112Z,5.00
2023-04-03T12:52:37.489Z,4.80
2023-04-03T12:55:17.181Z,4.60
2023-04-03T12:57:45.805Z,4.70
2023-04-03T13:00:35.655Z,4.80
2023-04-03T13:03:09.214Z,4.90
2023-04-03T13:05:37.921Z,4.90
2023-04-03T13:08:15.957Z,5.00
2023-04-03T13:10:57.765Z,5.10
2023-04-03T13:13:27.290Z,5.30
2023-04-03T13:15:57.449Z,5.50
2023-04-03T13:18:33.447Z,5.40
2023-04-03T13:21:08.315Z,5.30
2023-04-03T13:23:40.802Z,5.10
2023-04-03T13:26:10.305Z,5.10
2023-04-03T13:28:39.191Z,5.00
2023-04-03T13:31:19.357Z,4.80
2023-04-03T13:33:59.429Z,4.90
2023-04-03T13:36:33.378Z,5.00
2023-04-03T13:39:08.014Z,5.30
2023-04-03T13:41:39.517Z,5.40
2023-04-03T13:44:32.547Z,5.30
2023-04-03T13:47:16.395Z,5.40
2023-04-03T13:49:48.298Z,5.50
2023-04-03T13:52:28.625Z,5.60
2023-04-03T13:55:04.150Z,5.50
2023-04-03T13:57:35.710Z,5.40
2023-04-03T14:00:33.524Z,5.40
2023-04-03T14:03:01.877Z,5.50
2023-04-03T14:05:31.421Z,5.40
2023-04-03T14:07:59.908Z,5.50
2023-04-03T14:10:27.942Z,5.50
2023-04-03T14:12:56.495Z,5.50
2023-04-03T14:15:29.117Z,5.50
2023-04-03T14:17:57.856Z,5.90
2023-04-03T14:20:29.201Z,5.10
2023-04-03T14:22:59.257Z,5.10
2023-04-03T14:25:27.375Z,5.10
2023-04-03T14:27:55.990Z,5.10
2023-04-03T14:30:28.662Z,5.10
2023-04-03T14:32:57.049Z,5.10
2023-04-03T14:35:27.272Z,5.10
2023-04-03T14:37:57.817Z,5.10
2023-04-03T14:40:28.752Z,5.10
2023-04-03T14:42:58.314Z,5.20
2023-04-03T14:45:27.286Z,5.20
2023-04-03T14:47:58.270Z,5.10
2023-04-03T14:50:28.788Z,5.10
2023-04-03T14:53:00.477Z,5.10
2023-04-03T14:55:29.544Z,5.20
2023-04-03T14:57:57.496Z,5.30
2023-04-03T15:00:25.509Z,5.30
2023-04-03T15:02:53.931Z,5.30
2023-04-03T15:05:22.354Z,5.20
2023-04-03T15:07:55.543Z,5.10
2023-04-03T15:10:28.842Z,5.10
2023-04-03T15:12:57.769Z,5.20
2023-04-03T15:15:30.892Z,5.20
2023-04-03T15:17:59.770Z,5.30
2023-04-03T15:20:31.582Z,5.20
2023-04-03T15:23:02.024Z,5.30
2023-04-03T15:25:33.331Z,5.20
2023-04-03T15:28:02.510Z,5.10
2023-04-03T15:30:30.430Z,5.10
2023-04-03T15:32:58.387Z,5.10
2023-04-03T15:35:26.711Z,5.10
2023-04-03T15:37:54.931Z,5.20
2023-04-03T15:40:22.904Z,5.30
2023-04-03T15:42:54.282Z,5.30
2023-04-03T15:45:23.078Z,5.30
2023-04-03T15:47:51.581Z,5.30
2023-04-03T15:50:19.759Z,5.30
2023-04-03T15:52:47.609Z,5.30
2023-04-03T15:55:16.008Z,5.10
2023-04-03T15:57:43.875Z,5.10
2023-04-03T16:00:15.785Z,5.00
2023-04-03T16:02:44.745Z,4.90
2023-04-03T16:05:13.909Z,4.90
2023-04-03T16:07:42.661Z,4.90
2023-04-03T16:10:12.682Z,4.90
2023-04-03T16:12:40.830Z,4.80
2023-04-03T16:15:10.307Z,4.80
2023-04-03T16:17:42.647Z,4.80
2023-04-03T16:20:13.764Z,4.90
2023-04-03T16:22:42.554Z,4.90
2023-04-03T16:25:11.314Z,4.90
2023-04-03T16:27:39.725Z,4.80
2023-04-03T16:30:10.192Z,4.80
2023-04-03T16:32:41.247Z,4.80
2023-04-03T16:35:11.853Z,4.70
2023-04-03T16:37:41.313Z,4.70
2023-04-03T16:40:10.770Z,4.70
2023-04-03T16:42:38.789Z,4.80
2023-04-03T16:45:08.436Z,4.70
2023-04-03T16:47:36.735Z,4.70
2023-04-03T16:50:10.471Z,4.70
2023-04-03T16:52:39.073Z,4.70
2023-04-03T16:55:08.816Z,4.60
2023-04-03T16:57:36.797Z,4.50
2023-04-03T17:00:06.351Z,4.50
2023-04-03T17:02:34.667Z,4.50
2023-04-03T17:05:02.569Z,4.50
2023-04-03T17:07:31.781Z,4.40
2023-04-03T17:09:59.875Z,4.50
2023-04-03T17:12:28.775Z,4.50
2023-04-03T17:14:56.697Z,4.40
2023-04-03T17:17:27.278Z,4.40
2023-04-03T17:19:57.421Z,4.40
2023-04-03T17:22:26.271Z,4.40
2023-04-03T17:24:55.533Z,4.30
2023-04-03T17:27:23.465Z,4.30
2023-04-03T17:29:51.666Z,4.20
2023-04-03T17:32:19.797Z,4.10
2023-04-03T17:34:48.394Z,4.10
2023-04-03T17:37:16.342Z,4.20
2023-04-03T17:39:44.312Z,4.20
2023-04-03T17:42:14.258Z,4.10
2023-04-03T17:44:42.265Z,4.10
2023-04-03T17:47:13.613Z,4.00
2023-04-03T17:49:41.799Z,4.00
2023-04-03T17:52:10.026Z,4.00
2023-04-03T17:54:38.223Z,3.90
2023-04-03T17:57:06.685Z,3.90
2023-04-03T17:59:36.062Z,3.90
2023-04-03T18:02:03.980Z,3.80
2023-04-03T18:04:32.406Z,3.80
2023-04-03T18:07:00.420Z,3.80
2023-04-03T18:09:32.816Z,3.70
2023-04-03T18:12:05.518Z,3.70
2023-04-03T18:14:38.181Z,3.70
2023-04-03T18:17:07.124Z,3.70
2023-04-03T18:19:35.515Z,3.70
2023-04-03T18:22:09.302Z,3.70
2023-04-03T18:24:37.884Z,3.70
2023-04-03T18:27:12.430Z,3.70
2023-04-03T18:29:45.868Z,3.70
2023-04-03T18:32:18.761Z,3.70
2023-04-03T18:34:46.669Z,3.70
2023-04-03T18:37:15.281Z,3.60
2023-04-03T18:39:43.656Z,3.60
2023-04-03T18:42:16.124Z,3.60
2023-04-03T18:44:51.332Z,3.60
2023-04-03T18:47:19.711Z,3.60
2023-04-03T18:49:47.795Z,3.60
2023-04-03T18:52:16.055Z,3.60
2023-04-03T18:54:44.010Z,3.50
2023-04-03T18:57:11.894Z,3.50
2023-04-03T18:59:39.889Z,3.40
2023-04-03T19:02:10.692Z,3.40
2023-04-03T19:04:38.857Z,3.40
2023-04-03T19:07:06.886Z,3.40
2023-04-03T19:09:35.525Z,3.30
2023-04-03T19:12:03.763Z,3.50
2023-04-03T19:14:31.641Z,3.40
2023-04-03T19:16:59.889Z,3.40
2023-04-03T19:19:29.413Z,3.30
2023-04-03T19:21:57.306Z,3.20
2023-04-03T19:24:28.070Z,3.20
2023-04-03T19:26:56.040Z,3.10
2023-04-03T19:29:23.923Z,3.10
2023-04-03T19:31:52.392Z,3.10
2023-04-03T19:34:20.415Z,3.10
2023-04-03T19:36:51.975Z,3.10
2023-04-03T19:39:20.083Z,3.10
2023-04-03T19:41:48.221Z,3.20
2023-04-03T19:44:16.297Z,3.10
2023-04-03T19:46:51.043Z,3.10
2023-04-03T19:49:20.877Z,3.10
2023-04-03T19:51:50.173Z,3.10
2023-04-03T19:54:18.838Z,3.10
2023-04-03T19:56:47.078Z,3.10
2023-04-03T19:59:16.452Z,3.00
2023-04-03T20:01:46.253Z,3.00
2023-04-03T20:04:14.357Z,2.90
2023-04-03T20:06:42.372Z,2.90
2023-04-03T20:09:11.758Z,2.80
2023-04-03T20:11:41.078Z,2.70
2023-04-03T20:14:08.934Z,2.70
2023-04-03T20:16:36.807Z,2.60
2023-04-03T20:19:05.977Z,2.50
2023-04-03T20:21:35.482Z,2.50
2023-04-03T20:24:08.420Z,2.40
2023-04-03T20:26:43.840Z,2.30
2023-04-03T20:29:11.770Z,2.30
2023-04-03T20:31:40.466Z,2.30
2023-04-03T20:34:08.621Z,2.30
2023-04-03T20:36:36.862Z,2.30
2023-04-03T20:39:05.187Z,2.30
2023-04-03T20:41:35.443Z,2.30
2023-04-03T20:44:04.729Z,2.20
2023-04-03T20:46:49.185Z,2.10
2023-04-03T20:49:20.709Z,2.10
2023-04-03T20:51:48.794Z,2.10
2023-04-03T20:54:17.426Z,2.10
2023-04-03T20:56:49.583Z,2.10
2023-04-03T20:59:20.473Z,2.10
2023-04-03T21:01:48.899Z,2.10
2023-04-03T21:04:24.645Z,2.00
2023-04-03T21:07:48.919Z,2.00
2023-04-03T21:11:13.847Z,1.90
2023-04-03T21:14:37.963Z,1.90
2023-04-03T21:17:05.638Z,1.70
2023-04-03T21:19:35.340Z,1.70
2023-04-03T21:22:03.695Z,1.60
2023-04-03T21:24:31.943Z,1.60
2023-04-03T21:26:59.910Z,1.60
2023-04-03T21:29:28.067Z,1.60
2023-04-03T21:31:58.205Z,1.50
2023-04-03T21:34:28.534Z,1.50
2023-04-03T21:37:01.870Z,1.50
2023-04-03T21:39:30.055Z,1.50
2023-04-03T21:41:58.054Z,1.50
2023-04-03T21:44:27.287Z,1.40
2023-04-03T21:46:55.254Z,1.30
2023-04-03T21:49:25.281Z,1.30
2023-04-03T21:51:53.276Z,1.30
2023-04-03T21:54:22.475Z,1.20
2023-04-03T21:56:51.554Z,1.20
2023-04-03T21:59:19.760Z,1.20
2023-04-03T22:01:47.757Z,1.20
2023-04-03T22:04:16.433Z,1.10
2023-04-03T22:06:45.635Z,1.10
2023-04-03T22:09:13.567Z,1.00
2023-04-03T22:11:45.811Z,1.00
2023-04-03T22:14:13.881Z,0.90
2023-04-03T22:16:41.997Z,0.80
2023-04-03T22:19:10.282Z,0.80
2023-04-03T22:21:38.123Z,0.80
2023-04-03T22:24:06.639Z,0.70
2023-04-03T22:26:35.173Z,0.70
2023-04-03T22:29:05.779Z,0.70
2023-04-03T22:31:34.548Z,0.70
2023-04-03T22:34:04.142Z,0.70
2023-04-03T22:36:32.305Z,0.70
2023-04-03T22:39:00.553Z,0.60
2023-04-03T22:41:28.553Z,0.60
2023-04-03T22:43:58.321Z,0.60
2023-04-03T22:46:28.163Z,0.60
2023-04-03T22:48:56.171Z,0.60
2023-04-03T22:51:24.091Z,0.60
2023-04-03T22:53:52.046Z,0.50
2023-04-03T22:56:19.944Z,0.50
2023-04-03T22:58:48.358Z,0.50
2023-04-03T23:01:16.727Z,0.50
2023-04-03T23:03:46.657Z,0.40
2023-04-03T23:06:14.516Z,0.40
2023-04-03T23:08:43.740Z,0.40
2023-04-03T23:11:11.673Z,0.30
2023-04-03T23:13:39.950Z,0.30
2023-04-03T23:16:08.773Z,0.30
2023-04-03T23:18:39.622Z,0.20
2023-04-03T23:21:09.551Z,0.20
2023-04-03T23:23:37.958Z,0.20
2023-04-03T23:26:06.061Z,0.20
2023-04-03T23:28:33.997Z,0.10
2023-04-03T23:31:03.897Z,0.10
2023-04-03T23:33:33.715Z,0.10
2023-04-03T23:36:07.896Z,0.10
2023-04-03T23:38:38.110Z,0.00
2023-04-03T23:41:06.497Z,0.10
2023-04-03T23:43:34.710Z,0.10
2023-04-03T23:46:02.850Z,0.10
2023-04-03T23:48:30.832Z,0.00
2023-04-03T23:50:58.708Z,0.00
2023-04-03T23:53:27.560Z,0.00
2023-04-03T23:55:56.948Z,-0.10
2023-04-03T23:58:25.169Z,-0.10
